Foristell, Missouri
Current Conditions -  °F | °C
As of 7:15 AM on Monday 22 Dec 2014 (Local Time) from KFYG Reporting Station
Light Rain Light Rain  
Wind Chill: 32°   Ceiling: 3500
Heat Index: 39°   Visibility: 3mi
Dew Point: 37°   Wind: 12mph
Humidity: 93%   Direction: 120°ESE
Pressure: 29.72"   Gusts: NA
Location:  38.82°N, 90.96°W
Report Text: KFYG 221315Z AUTO 12010KT 3SM -RA BKN035 BKN043 OVC050 04/03 A2972 RMK AO2
Loading
Personal Weather Stations






























Interactive Weather Map New forecast layout! Learn more

10-Day Weather Forecast

Advertisements
Track Severe Weather on mobile